createdAt,value
2019-05-15T00:00:28.835Z,92.98
2019-05-15T00:03:00.559Z,93.06
2019-05-15T00:05:33.001Z,93.02
2019-05-15T00:08:04.970Z,92.94
2019-05-15T00:10:38.913Z,92.92
2019-05-15T00:13:10.457Z,92.92
2019-05-15T00:15:42.518Z,92.83
2019-05-15T00:18:14.614Z,92.73
2019-05-15T00:20:49.380Z,92.77
2019-05-15T00:23:19.742Z,92.83
2019-05-15T00:25:51.803Z,92.97
2019-05-15T00:28:23.921Z,93.08
2019-05-15T00:30:58.090Z,93.31
2019-05-15T00:33:30.575Z,93.56
2019-05-15T00:36:02.988Z,93.68
2019-05-15T00:38:35.295Z,93.80
2019-05-15T00:41:09.518Z,94.00
2019-05-15T00:43:41.166Z,94.59
2019-05-15T00:46:13.136Z,94.98
2019-05-15T00:48:44.884Z,95.23
2019-05-15T00:51:19.288Z,95.41
2019-05-15T00:53:50.347Z,95.59
2019-05-15T00:56:24.198Z,95.78
2019-05-15T00:58:58.687Z,96.02
2019-05-15T01:01:30.869Z,96.10
2019-05-15T01:04:03.415Z,95.95
2019-05-15T01:06:38.975Z,95.76
2019-05-15T01:09:10.728Z,95.57
2019-05-15T01:11:43.533Z,95.40
2019-05-15T01:14:15.267Z,95.27
2019-05-15T01:16:48.980Z,95.17
2019-05-15T01:19:20.502Z,95.00
2019-05-15T01:21:52.462Z,94.91
2019-05-15T01:24:24.444Z,94.87
2019-05-15T01:26:58.456Z,94.89
2019-05-15T01:29:40.651Z,94.93
2019-05-15T01:32:03.613Z,94.90
2019-05-15T01:34:35.636Z,94.96
2019-05-15T01:37:08.512Z,95.13
2019-05-15T01:39:41.643Z,95.28
2019-05-15T01:42:14.739Z,95.42
2019-05-15T01:44:48.398Z,95.44
2019-05-15T01:47:20.180Z,95.35
2019-05-15T01:49:52.265Z,95.23
2019-05-15T01:52:24.473Z,95.17
2019-05-15T01:54:58.272Z,95.08
2019-05-15T01:57:30.195Z,95.09
2019-05-15T02:00:03.053Z,95.15
2019-05-15T02:02:34.738Z,95.30
2019-05-15T02:05:08.450Z,95.37
2019-05-15T02:07:40.718Z,95.43
2019-05-15T02:10:12.497Z,95.45
2019-05-15T02:12:44.627Z,95.58
2019-05-15T02:15:18.991Z,95.66
2019-05-15T02:17:50.917Z,95.62
2019-05-15T02:20:22.867Z,95.55
2019-05-15T02:22:54.844Z,95.43
2019-05-15T02:25:28.042Z,95.11
2019-05-15T02:27:59.977Z,94.97
2019-05-15T02:30:34.090Z,94.73
2019-05-15T02:33:05.259Z,94.64
2019-05-15T02:35:39.285Z,94.44
2019-05-15T02:38:15.194Z,94.14
2019-05-15T02:40:44.016Z,93.98
2019-05-15T02:43:18.768Z,93.87
2019-05-15T02:45:50.766Z,93.87
2019-05-15T02:48:22.893Z,93.69
2019-05-15T02:50:54.708Z,93.63
2019-05-15T02:53:29.623Z,93.67
2019-05-15T02:56:01.337Z,93.71
2019-05-15T02:58:33.278Z,93.91
2019-05-15T03:01:05.461Z,94.31
2019-05-15T03:03:38.728Z,94.69
2019-05-15T03:06:10.610Z,94.98
2019-05-15T03:08:42.256Z,95.29
2019-05-15T03:11:14.009Z,95.37
2019-05-15T03:13:46.082Z,95.42
2019-05-15T03:16:19.374Z,95.39
2019-05-15T03:18:55.312Z,95.25
2019-05-15T03:21:24.611Z,95.06
2019-05-15T03:23:59.463Z,94.88
2019-05-15T03:26:30.192Z,94.65
2019-05-15T03:29:02.309Z,94.45
2019-05-15T03:31:50.499Z,94.31
2019-05-15T03:34:20.054Z,94.17
2019-05-15T03:36:45.244Z,94.03
2019-05-15T03:39:14.794Z,93.84
2019-05-15T03:41:49.546Z,93.58
2019-05-15T03:44:20.036Z,93.33
2019-05-15T03:46:51.816Z,93.16
2019-05-15T03:49:23.428Z,92.92
2019-05-15T03:51:55.040Z,92.75
2019-05-15T03:54:29.296Z,92.55
2019-05-15T03:57:00.087Z,92.36
2019-05-15T03:59:31.835Z,92.22
2019-05-15T04:02:03.454Z,92.12
2019-05-15T04:04:35.095Z,92.04
2019-05-15T04:07:09.337Z,91.85
2019-05-15T04:10:04.114Z,91.70
2019-05-15T04:12:39.836Z,91.56
2019-05-15T04:15:10.945Z,91.38
2019-05-15T04:17:42.657Z,91.34
2019-05-15T04:20:15.123Z,91.30
2019-05-15T04:22:49.169Z,91.22
2019-05-15T04:25:20.699Z,91.09
2019-05-15T04:27:53.402Z,90.85
2019-05-15T04:30:25.162Z,90.62
2019-05-15T04:32:59.469Z,90.40
2019-05-15T04:35:30.324Z,90.27
2019-05-15T04:38:02.281Z,90.07
2019-05-15T04:40:33.895Z,89.80
2019-05-15T04:43:05.509Z,89.36
2019-05-15T04:45:39.209Z,88.99
2019-05-15T04:48:10.728Z,88.61
2019-05-15T04:50:42.653Z,88.26
2019-05-15T04:53:14.472Z,87.83
2019-05-15T04:55:49.078Z,87.41
2019-05-15T04:58:21.090Z,87.18
2019-05-15T05:00:54.158Z,86.85
2019-05-15T05:03:28.844Z,86.57
2019-05-15T05:05:59.419Z,86.04
2019-05-15T05:08:31.723Z,85.52
2019-05-15T05:11:03.366Z,84.54
2019-05-15T05:13:35.331Z,83.45
2019-05-15T05:16:09.530Z,83.29
2019-05-15T05:18:41.866Z,82.89
2019-05-15T05:21:13.669Z,82.49
2019-05-15T05:23:48.358Z,82.33
2019-05-15T05:26:20.036Z,82.43
2019-05-15T05:28:52.004Z,82.10
2019-05-15T05:31:23.790Z,82.07
2019-05-15T05:33:55.338Z,81.67
2019-05-15T05:36:27.910Z,81.52
2019-05-15T05:39:00.570Z,81.00
2019-05-15T05:41:32.457Z,80.46
2019-05-15T05:44:04.610Z,80.37
2019-05-15T05:46:36.279Z,79.37
2019-05-15T05:49:08.230Z,79.29
2019-05-15T05:51:40.193Z,79.07
2019-05-15T05:54:11.849Z,79.48
2019-05-15T05:56:43.824Z,79.24
2019-05-15T05:59:18.354Z,79.45
2019-05-15T06:01:49.281Z,78.27
2019-05-15T06:04:21.443Z,77.39
2019-05-15T06:07:05.902Z,77.35
2019-05-15T06:09:27.828Z,77.52
2019-05-15T06:11:59.670Z,77.25
2019-05-15T06:14:31.340Z,77.15
2019-05-15T06:17:03.559Z,76.88
2019-05-15T06:19:35.680Z,76.23
2019-05-15T06:22:08.738Z,76.10
2019-05-15T06:24:40.499Z,75.66
2019-05-15T06:27:12.385Z,75.23
2019-05-15T06:29:44.342Z,74.39
2019-05-15T06:32:19.238Z,72.77
2019-05-15T06:34:49.600Z,70.58
2019-05-15T06:37:21.358Z,68.67
2019-05-15T06:39:53.228Z,68.73
2019-05-15T06:42:25.082Z,69.46
2019-05-15T06:44:58.872Z,69.44
2019-05-15T06:47:30.219Z,67.54
2019-05-15T06:50:02.092Z,66.37
2019-05-15T06:52:34.142Z,64.53
2019-05-15T06:55:09.026Z,64.42
2019-05-15T06:57:40.954Z,64.41
2019-05-15T07:00:13.325Z,64.41
2019-05-15T07:02:45.189Z,63.83
2019-05-15T07:05:18.361Z,62.78
2019-05-15T07:07:50.140Z,60.34
2019-05-15T07:10:21.977Z,60.20
2019-05-15T07:12:53.647Z,60.94
2019-05-15T07:15:27.854Z,60.58
2019-05-15T07:18:00.440Z,60.34
2019-05-15T07:20:32.305Z,59.51
2019-05-15T07:23:04.600Z,58.19
2019-05-15T07:25:38.833Z,54.99
2019-05-15T07:28:09.811Z,56.46
2019-05-15T07:30:41.896Z,56.44
2019-05-15T07:33:13.752Z,53.51
2019-05-15T07:35:45.621Z,52.70
2019-05-15T07:38:18.264Z,53.97
2019-05-15T07:40:59.280Z,53.60
2019-05-15T07:43:23.568Z,53.44
2019-05-15T07:45:55.983Z,53.78
2019-05-15T07:48:29.154Z,51.13
2019-05-15T07:51:00.986Z,49.04
2019-05-15T07:53:32.716Z,47.42
2019-05-15T07:56:04.683Z,46.37
2019-05-15T07:58:38.665Z,46.84
2019-05-15T08:01:10.294Z,46.85
2019-05-15T08:03:55.574Z,46.63
2019-05-15T08:06:17.866Z,45.86
2019-05-15T08:08:49.100Z,44.58
2019-05-15T08:11:24.659Z,45.13
2019-05-15T08:13:54.275Z,44.56
2019-05-15T08:16:28.481Z,44.66
2019-05-15T08:18:59.934Z,43.48
2019-05-15T08:21:32.006Z,43.06
2019-05-15T08:24:03.659Z,41.89
2019-05-15T08:26:37.801Z,42.15
2019-05-15T08:29:09.120Z,41.99
2019-05-15T08:31:40.985Z,41.60
2019-05-15T08:34:16.250Z,41.93
2019-05-15T08:36:48.286Z,41.77
2019-05-15T08:39:19.743Z,40.83
2019-05-15T08:41:51.700Z,41.32
2019-05-15T08:44:24.483Z,42.08
2019-05-15T08:46:58.432Z,40.94
2019-05-15T08:49:30.957Z,42.11
2019-05-15T08:52:02.515Z,42.19
2019-05-15T08:54:34.586Z,43.73
2019-05-15T08:57:08.508Z,43.83
2019-05-15T08:59:39.924Z,42.39
2019-05-15T09:02:11.702Z,42.91
2019-05-15T09:04:43.561Z,43.92
2019-05-15T09:07:15.196Z,42.41
2019-05-15T09:09:48.741Z,41.89
2019-05-15T09:12:21.493Z,41.11
2019-05-15T09:14:53.459Z,41.94
2019-05-15T09:17:25.522Z,41.83
2019-05-15T09:19:58.828Z,41.48
2019-05-15T09:22:30.559Z,41.93
2019-05-15T09:25:02.441Z,40.39
2019-05-15T09:27:34.600Z,41.16
2019-05-15T09:30:09.226Z,41.61
2019-05-15T09:32:41.191Z,41.83
2019-05-15T09:35:18.681Z,43.53
2019-05-15T09:37:50.022Z,44.33
2019-05-15T09:40:21.668Z,45.59
2019-05-15T09:42:53.425Z,44.26
2019-05-15T09:45:28.530Z,45.20
2019-05-15T09:47:59.808Z,43.60
2019-05-15T09:50:31.704Z,42.92
2019-05-15T09:53:03.554Z,42.35
2019-05-15T09:55:37.992Z,42.78
2019-05-15T09:58:08.428Z,41.60
2019-05-15T10:00:40.054Z,41.69
2019-05-15T10:03:12.840Z,42.24
2019-05-15T10:05:44.986Z,42.91
2019-05-15T10:08:17.088Z,44.18
2019-05-15T10:10:49.741Z,41.66
2019-05-15T10:13:21.914Z,41.68
2019-05-15T10:15:53.671Z,41.88
2019-05-15T10:18:28.050Z,42.34
2019-05-15T10:20:58.821Z,42.11
2019-05-15T10:23:30.728Z,42.02
2019-05-15T10:26:02.876Z,40.87
2019-05-15T10:28:34.976Z,40.21
2019-05-15T10:31:09.334Z,40.01
2019-05-15T10:33:40.256Z,39.21
2019-05-15T10:36:12.220Z,38.93
2019-05-15T10:38:44.138Z,38.92
2019-05-15T10:41:18.551Z,39.40
2019-05-15T10:43:55.989Z,39.35
2019-05-15T10:46:21.830Z,39.64
2019-05-15T10:48:53.693Z,39.74
2019-05-15T10:51:25.450Z,38.68
2019-05-15T10:53:57.306Z,38.77
2019-05-15T10:56:29.334Z,39.15
2019-05-15T10:59:01.031Z,40.23
2019-05-15T11:01:32.672Z,39.47
2019-05-15T11:04:04.755Z,40.22
2019-05-15T11:06:38.339Z,39.86
2019-05-15T11:09:09.817Z,40.12
2019-05-15T11:11:41.460Z,39.92
2019-05-15T11:14:13.117Z,38.87
2019-05-15T11:16:44.667Z,38.52
2019-05-15T11:19:16.735Z,38.73
2019-05-15T11:21:48.749Z,37.92
2019-05-15T11:24:21.053Z,38.18
2019-05-15T11:26:56.023Z,39.43
2019-05-15T11:29:25.723Z,38.37
2019-05-15T11:31:58.161Z,38.37
2019-05-15T11:34:30.875Z,39.26
2019-05-15T11:37:03.873Z,38.10
2019-05-15T11:39:44.600Z,39.54
2019-05-15T11:42:09.720Z,37.21
2019-05-15T11:44:41.573Z,38.41
2019-05-15T11:47:13.759Z,40.57
2019-05-15T11:49:45.712Z,40.52
2019-05-15T11:52:18.788Z,40.94
2019-05-15T11:54:50.086Z,40.53
2019-05-15T11:57:36.978Z,40.11
2019-05-15T11:59:55.688Z,40.20
2019-05-15T12:02:29.336Z,39.28
2019-05-15T12:05:01.276Z,42.11
2019-05-15T12:07:33.114Z,42.48
2019-05-15T12:10:11.960Z,40.78
2019-05-15T12:12:43.912Z,39.36
2019-05-15T12:15:18.584Z,38.48
2019-05-15T12:17:49.378Z,38.34
2019-05-15T12:20:21.746Z,39.51
2019-05-15T12:22:53.464Z,40.23
2019-05-15T12:25:29.299Z,38.67
2019-05-15T12:28:00.207Z,41.02
2019-05-15T12:30:32.269Z,42.07
2019-05-15T12:33:04.015Z,39.42
2019-05-15T12:35:39.218Z,39.99
2019-05-15T12:38:09.899Z,40.77
2019-05-15T13:01:14.715Z,39.23
2019-05-15T13:03:38.294Z,38.01
2019-05-15T13:06:09.882Z,36.48
2019-05-15T13:08:41.535Z,36.87
2019-05-15T13:11:15.268Z,37.25
2019-05-15T13:13:48.428Z,37.96
2019-05-15T13:16:20.300Z,38.93
2019-05-15T13:18:53.397Z,39.84
2019-05-15T13:21:25.349Z,39.89
2019-05-15T13:23:58.675Z,38.24
2019-05-15T13:26:30.414Z,38.31
2019-05-15T13:29:02.447Z,38.31
2019-05-15T13:31:34.415Z,37.38
2019-05-15T13:34:08.153Z,37.05
2019-05-15T13:36:39.991Z,35.11
2019-05-15T13:39:11.753Z,35.04
2019-05-15T13:41:43.594Z,35.37
2019-05-15T13:44:15.570Z,35.70
2019-05-15T13:46:47.643Z,34.70
2019-05-15T13:49:19.498Z,34.47
2019-05-15T13:51:51.351Z,34.00
2019-05-15T13:54:23.409Z,33.95
2019-05-15T13:56:55.176Z,34.26
2019-05-15T13:59:28.544Z,33.22
2019-05-15T14:02:00.547Z,33.27
2019-05-15T14:04:32.607Z,33.28
2019-05-15T14:07:04.270Z,33.39
2019-05-15T14:09:43.575Z,32.71
2019-05-15T14:12:12.017Z,33.16
2019-05-15T14:14:41.575Z,33.21
2019-05-15T14:17:13.540Z,32.45
2019-05-15T14:19:45.621Z,33.26
2019-05-15T14:22:17.676Z,33.36
2019-05-15T14:24:49.533Z,33.45
2019-05-15T14:27:21.284Z,33.57
2019-05-15T14:29:53.164Z,33.55
2019-05-15T14:32:35.362Z,33.92
2019-05-15T14:34:58.666Z,33.56
2019-05-15T14:37:30.204Z,32.96
2019-05-15T14:40:02.857Z,31.99
2019-05-15T14:42:34.590Z,31.05
2019-05-15T14:45:08.810Z,30.82
2019-05-15T14:47:40.565Z,32.68
2019-05-15T14:50:12.546Z,32.37
2019-05-15T14:52:44.383Z,32.63
2019-05-15T14:55:16.351Z,32.44
2019-05-15T14:57:48.915Z,31.14
2019-05-15T15:00:21.412Z,28.52
2019-05-15T15:02:53.064Z,28.12
2019-05-15T15:05:26.248Z,28.76
2019-05-15T15:07:58.689Z,28.76
2019-05-15T15:10:30.500Z,28.59
2019-05-15T15:13:03.776Z,28.34
2019-05-15T15:15:37.935Z,28.32
2019-05-15T15:18:10.073Z,28.59
2019-05-15T15:20:41.917Z,28.10
2019-05-15T15:23:13.878Z,26.17
2019-05-15T15:25:48.737Z,26.94
2019-05-15T15:28:20.467Z,27.44
2019-05-15T15:30:53.914Z,28.21
2019-05-15T15:33:28.605Z,27.84
2019-05-15T15:35:59.226Z,27.43
2019-05-15T15:38:40.570Z,28.30
2019-05-15T15:41:04.396Z,28.79
2019-05-15T15:43:38.594Z,29.57
2019-05-15T15:46:09.755Z,30.41
2019-05-15T15:48:42.644Z,30.80
2019-05-15T15:51:14.686Z,32.24
2019-05-15T15:53:48.025Z,32.40
2019-05-15T15:56:20.893Z,33.56
2019-05-15T15:58:54.385Z,34.19
2019-05-15T16:01:28.473Z,33.99
2019-05-15T16:03:59.454Z,35.02
2019-05-15T16:06:31.527Z,35.84
2019-05-15T16:09:03.375Z,36.73
2019-05-15T16:11:35.430Z,37.61
2019-05-15T16:14:09.226Z,38.51
2019-05-15T16:16:40.665Z,39.71
2019-05-15T16:19:12.744Z,39.69
2019-05-15T16:21:44.551Z,40.15
2019-05-15T16:24:18.717Z,41.41
2019-05-15T16:26:49.820Z,42.10
2019-05-15T16:29:21.431Z,43.04
2019-05-15T16:31:53.383Z,43.18
2019-05-15T16:34:25.371Z,43.93
2019-05-15T16:36:58.477Z,44.36
2019-05-15T16:39:32.345Z,44.80
2019-05-15T16:42:03.311Z,45.63
2019-05-15T16:44:34.834Z,46.26
2019-05-15T16:47:11.794Z,47.34
2019-05-15T16:49:48.541Z,47.34
2019-05-15T16:52:19.967Z,47.72
2019-05-15T16:54:51.786Z,48.25
2019-05-15T16:57:23.664Z,48.75
2019-05-15T16:59:58.679Z,49.19
2019-05-15T17:02:32.247Z,49.75
2019-05-15T17:05:07.329Z,50.17
2019-05-15T17:07:40.301Z,50.62
2019-05-15T17:10:15.612Z,51.08
2019-05-15T17:12:49.304Z,51.81
2019-05-15T17:15:21.124Z,52.06
2019-05-15T17:17:54.401Z,52.44
2019-05-15T17:20:28.256Z,52.56
2019-05-15T17:22:59.800Z,52.73
2019-05-15T17:25:31.635Z,53.83
2019-05-15T17:28:05.117Z,55.79
2019-05-15T17:30:39.746Z,57.56
2019-05-15T17:33:11.522Z,58.75
2019-05-15T17:35:43.119Z,59.44
2019-05-15T17:38:15.015Z,60.26
2019-05-15T17:40:48.581Z,61.16
2019-05-15T17:43:21.299Z,62.02
2019-05-15T17:45:53.694Z,62.82
2019-05-15T17:48:25.425Z,63.83
2019-05-15T17:50:59.207Z,64.65
2019-05-15T17:53:32.120Z,65.11
2019-05-15T17:56:04.305Z,65.42
2019-05-15T17:58:39.440Z,65.63
2019-05-15T18:01:13.667Z,66.08
2019-05-15T18:03:48.445Z,66.82
2019-05-15T18:06:19.097Z,67.63
2019-05-15T18:08:51.134Z,68.50
2019-05-15T18:11:23.146Z,69.27
2019-05-15T18:14:13.462Z,69.74
2019-05-15T18:16:48.776Z,69.13
2019-05-15T18:19:21.334Z,68.81
2019-05-15T18:21:53.217Z,68.97
2019-05-15T18:24:25.057Z,69.11
2019-05-15T18:26:58.408Z,69.54
2019-05-15T18:29:31.664Z,70.50
2019-05-15T18:32:03.362Z,71.37
2019-05-15T18:34:35.281Z,71.81
2019-05-15T18:37:08.571Z,72.37
2019-05-15T18:39:45.659Z,72.88
2019-05-15T18:42:18.573Z,73.22
2019-05-15T18:44:50.618Z,73.53
2019-05-15T18:47:24.024Z,73.99
2019-05-15T18:50:05.237Z,74.36
2019-05-15T18:52:29.561Z,74.75
2019-05-15T18:55:09.092Z,75.22
2019-05-15T18:57:41.996Z,75.42
2019-05-15T19:00:18.412Z,75.63
2019-05-15T19:02:50.334Z,75.96
2019-05-15T19:05:22.496Z,76.29
2019-05-15T19:07:54.454Z,76.60
2019-05-15T19:10:28.273Z,77.10
2019-05-15T19:13:00.224Z,77.52
2019-05-15T19:15:37.811Z,77.96
2019-05-15T19:18:09.061Z,78.23
2019-05-15T19:20:40.927Z,78.82
2019-05-15T19:23:20.592Z,79.34
2019-05-15T19:25:52.579Z,79.58
2019-05-15T19:28:28.650Z,79.82
2019-05-15T19:31:00.433Z,79.87
2019-05-15T19:33:41.132Z,79.98
2019-05-15T19:36:11.845Z,79.98
2019-05-15T19:38:43.915Z,80.09
2019-05-15T19:41:15.766Z,80.31
2019-05-15T19:43:50.402Z,80.47
2019-05-15T19:46:22.351Z,80.75
2019-05-15T19:48:54.434Z,81.01
2019-05-15T19:51:28.824Z,81.25
2019-05-15T19:54:01.739Z,81.32
2019-05-15T19:56:35.321Z,81.49
2019-05-15T19:59:10.165Z,81.68
2019-05-15T20:01:48.610Z,81.87
2019-05-15T20:04:20.868Z,82.11
2019-05-15T20:06:54.647Z,82.28
2019-05-15T20:09:27.807Z,82.51
2019-05-15T20:12:04.374Z,82.92
2019-05-15T20:14:38.188Z,83.23
2019-05-15T20:17:12.521Z,83.41
2019-05-15T20:19:44.609Z,83.62
2019-05-15T20:22:19.326Z,83.65
2019-05-15T20:24:52.816Z,83.62
2019-05-15T20:27:24.892Z,83.73
2019-05-15T20:29:56.653Z,83.72
2019-05-15T20:32:28.442Z,83.63
2019-05-15T20:35:00.948Z,83.76
2019-05-15T20:37:32.647Z,83.81
2019-05-15T20:40:09.514Z,83.98
2019-05-15T20:42:41.470Z,84.22
2019-05-15T20:45:18.425Z,84.42
2019-05-15T20:47:50.427Z,84.61
2019-05-15T20:50:22.079Z,84.89
2019-05-15T20:52:53.946Z,85.30
2019-05-15T20:55:25.602Z,85.42
2019-05-15T20:57:58.608Z,85.47
2019-05-15T21:00:30.948Z,86.05
2019-05-15T21:03:02.798Z,86.05
2019-05-15T21:05:38.137Z,85.90
2019-05-15T21:08:09.611Z,85.99
2019-05-15T21:10:43.200Z,86.02
2019-05-15T21:13:14.827Z,86.15
2019-05-15T21:15:48.415Z,86.39
2019-05-15T21:18:20.338Z,86.59
2019-05-15T21:20:52.285Z,86.68
2019-05-15T21:23:23.943Z,86.88
2019-05-15T21:25:55.791Z,86.98
2019-05-15T21:28:27.739Z,87.29
2019-05-15T21:31:00.739Z,87.43
2019-05-15T21:33:32.716Z,87.55
2019-05-15T21:36:04.632Z,87.53
2019-05-15T21:38:38.717Z,87.60
2019-05-15T21:41:10.593Z,87.75
2019-05-15T21:43:42.516Z,87.92
2019-05-15T21:46:14.467Z,88.02
2019-05-15T21:48:48.551Z,88.03
2019-05-15T21:51:19.639Z,88.01
2019-05-15T21:53:51.604Z,88.14
2019-05-15T21:56:23.352Z,88.20
2019-05-15T21:58:55.382Z,88.21
2019-05-15T22:01:28.718Z,88.32
2019-05-15T22:04:00.656Z,88.38
2019-05-15T22:06:32.330Z,88.47
2019-05-15T22:09:07.831Z,88.60
2019-05-15T22:11:39.947Z,88.77
2019-05-15T22:14:11.801Z,88.88
2019-05-15T22:16:43.923Z,88.88
2019-05-15T22:19:18.133Z,88.95
2019-05-15T22:22:11.249Z,89.12
2019-05-15T22:24:44.330Z,89.22
2019-05-15T22:27:18.024Z,89.29
2019-05-15T22:29:49.573Z,89.42
2019-05-15T22:32:21.444Z,89.40
2019-05-15T22:35:06.232Z,89.37
2019-05-15T22:37:26.907Z,89.44
2019-05-15T22:40:00.823Z,89.44
2019-05-15T22:42:32.349Z,89.60
2019-05-15T22:45:09.024Z,89.72
2019-05-15T22:47:40.682Z,89.79
2019-05-15T22:50:13.805Z,89.82
2019-05-15T22:52:45.654Z,89.85
2019-05-15T22:55:18.235Z,89.84
2019-05-15T22:57:50.187Z,89.94
2019-05-15T23:00:22.559Z,89.92
2019-05-15T23:02:54.197Z,89.86
2019-05-15T23:05:29.326Z,89.86
2019-05-15T23:08:00.193Z,89.88
2019-05-15T23:10:31.932Z,90.05
2019-05-15T23:13:03.913Z,90.25
2019-05-15T23:15:38.380Z,90.31
2019-05-15T23:18:09.369Z,90.33
2019-05-15T23:20:41.319Z,90.33
2019-05-15T23:23:13.955Z,90.41
2019-05-15T23:25:45.652Z,90.43
2019-05-15T23:28:17.539Z,90.54
2019-05-15T23:30:50.307Z,90.72
2019-05-15T23:33:22.161Z,90.98
2019-05-15T23:35:54.243Z,91.07
2019-05-15T23:38:28.000Z,91.12
2019-05-15T23:40:59.924Z,91.22
2019-05-15T23:43:31.559Z,91.34
2019-05-15T23:46:03.419Z,91.35
2019-05-15T23:48:37.996Z,91.37
2019-05-15T23:51:08.883Z,91.30
2019-05-15T23:53:41.083Z,91.28
2019-05-15T23:56:13.011Z,91.24
2019-05-15T23:58:45.174Z,91.21
